Terminal Aerodrome Forecast
Issued by NWS

Home | Current Version | Previous Version | Text Only | Print | Product List | Glossary On
Versions: 1 2 3 4 5 6 7 8 9 10 11 12 13 14 15 16 17
585
FTUS43 KSGF 311040 AAB
TAFJLN
TAF AMD
KJLN 311040Z 3111/0106 14004KT P6SM VCSH BKN035
     FM311600 18006KT P6SM VCTS BKN035CB
     FM010100 30004KT P6SM VCSH BKN090=

USA.gov is the U.S. government's official web portal to all federal, state and local government web resources and services.